Airfield :
LOGIN :

Register | Disclaimer

   EN    FR    IT 

 










Legend :    VFR   Marginal VFR   IFR   Intensive IFR   Very Intensive IFR
Visi :
Ceiling :
>= 8 km
>= 3000ft
5 to 8 km
1000 to 3000 ft
1500m to 5 km
500 to 1000 ft
800 to 1500m
200 to 500 ft
< 800m
< 200 ft
Symbols :   Thunderstorms  Fog  Heavy snow  Heavy precipitations  Wind > 20 kt
SIGMETs :     Misc.  Thunderstorms  Icing  Turbulence  Mountain Waves  Volcanic Ashes






- Airport Elevation : 272 ft
- IATA code : MXN


LFRU - Morlaix-Ploujean

CURRENT METAR :
  • 011230Z AUTO 06010KT CAVOK 08/02 Q1005

EXPIRED METARs :
  • 011200Z AUTO 06012KT 9999 ///TCU 08/02 Q1005
  • 011130Z AUTO 04006KT 9999 FEW020 SCT026 07/04 Q1004
  • 011100Z AUTO 07008KT 9999 FEW017 BKN094 06/04 Q1004
  • 011030Z AUTO 08005KT 9999 FEW014 OVC094 07/05 Q1004
  • 011000Z AUTO 06006KT 020V080 CAVOK 06/05 Q1004
  • 010930Z AUTO 08006KT 9999 FEW008 OVC090 06/04 Q1004
  • 010900Z AUTO 07006KT 9000 NSC 06/04 Q1003
  • 010830Z AUTO 08006KT 9000 FEW012 OVC078 05/04 Q1003
  • 010800Z AUTO 07005KT 9000 NSC 05/04 Q1003

TAF N/A



MET'MAP, your aeronautical weather chart ! - Copyright ORBIFLY December 2007 - Disclaimer

ORBIFLY MET'MAP TEAM :

Programming & Development : Alexandra Zaïnal
Original concept : Baudouin d'Aumeries
Technical & hardware support : Manuel Goepfert
Assistance : Marc-Olivier Méhu




SOURCES & CREDITS :

   NOAA